sensor_id;sensor_type;location;lat;lon;timestamp;pressure;altitude;pressure_sealevel;temperature
70435;BMP280;57876;47.792;12.960;2022-11-25T00:01:16;96894.88;;;17.82
70435;BMP280;57876;47.792;12.960;2022-11-25T00:03:42;96893.97;;;17.79
70435;BMP280;57876;47.792;12.960;2022-11-25T00:06:34;96889.78;;;17.78
70435;BMP280;57876;47.792;12.960;2022-11-25T00:09:00;96891.06;;;17.77
70435;BMP280;57876;47.792;12.960;2022-11-25T00:11:26;96893.81;;;17.77
70435;BMP280;57876;47.792;12.960;2022-11-25T00:13:51;96887.63;;;17.77
70435;BMP280;57876;47.792;12.960;2022-11-25T00:16:17;96892.19;;;17.74
70435;BMP280;57876;47.792;12.960;2022-11-25T00:18:44;96890.75;;;17.73
70435;BMP280;57876;47.792;12.960;2022-11-25T00:21:12;96892.06;;;17.72
70435;BMP280;57876;47.792;12.960;2022-11-25T00:23:37;96890.59;;;17.71
70435;BMP280;57876;47.792;12.960;2022-11-25T00:26:10;96897.38;;;17.70
70435;BMP280;57876;47.792;12.960;2022-11-25T00:28:36;96888.44;;;17.70
70435;BMP280;57876;47.792;12.960;2022-11-25T00:31:08;96883.53;;;17.68
70435;BMP280;57876;47.792;12.960;2022-11-25T00:33:33;96888.28;;;17.68
70435;BMP280;57876;47.792;12.960;2022-11-25T00:36:02;96875.88;;;17.67
70435;BMP280;57876;47.792;12.960;2022-11-25T00:38:28;96891.59;;;17.66
70435;BMP280;57876;47.792;12.960;2022-11-25T00:40:53;96888.13;;;17.66
70435;BMP280;57876;47.792;12.960;2022-11-25T00:43:36;96889.41;;;17.65
70435;BMP280;57876;47.792;12.960;2022-11-25T00:46:19;96883.78;;;17.63
70435;BMP280;57876;47.792;12.960;2022-11-25T00:48:43;96894.03;;;17.62
70435;BMP280;57876;47.792;12.960;2022-11-25T00:51:07;96898.75;;;17.62
70435;BMP280;57876;47.792;12.960;2022-11-25T00:53:32;96895.31;;;17.61
70435;BMP280;57876;47.792;12.960;2022-11-25T00:56:01;96893.81;;;17.60
70435;BMP280;57876;47.792;12.960;2022-11-25T00:58:38;96894.41;;;17.59
70435;BMP280;57876;47.792;12.960;2022-11-25T01:01:02;96901.88;;;17.58
70435;BMP280;57876;47.792;12.960;2022-11-25T01:03:27;96905.19;;;17.57
70435;BMP280;57876;47.792;12.960;2022-11-25T01:05:51;96905.19;;;17.57
70435;BMP280;57876;47.792;12.960;2022-11-25T01:08:15;96905.75;;;17.55
70435;BMP280;57876;47.792;12.960;2022-11-25T01:10:40;96913.25;;;17.55
70435;BMP280;57876;47.792;12.960;2022-11-25T01:13:04;96913.25;;;17.55
70435;BMP280;57876;47.792;12.960;2022-11-25T01:15:28;96915.97;;;17.55
70435;BMP280;57876;47.792;12.960;2022-11-25T01:17:53;96914.34;;;17.52
70435;BMP280;57876;47.792;12.960;2022-11-25T01:20:17;96917.81;;;17.52
70435;BMP280;57876;47.792;12.960;2022-11-25T01:22:41;96917.09;;;17.52
70435;BMP280;57876;47.792;12.960;2022-11-25T01:25:06;96918.38;;;17.51
70435;BMP280;57876;47.792;12.960;2022-11-25T01:27:30;96914.91;;;17.50
70435;BMP280;57876;47.792;12.960;2022-11-25T01:29:55;96916.22;;;17.49
70435;BMP280;57876;47.792;12.960;2022-11-25T01:32:19;96918.94;;;17.49
70435;BMP280;57876;47.792;12.960;2022-11-25T01:34:44;96912.75;;;17.49
70435;BMP280;57876;47.792;12.960;2022-11-25T01:37:08;96909.84;;;17.47
70435;BMP280;57876;47.792;12.960;2022-11-25T01:39:32;96910.59;;;17.47
70435;BMP280;57876;47.792;12.960;2022-11-25T01:41:57;96907.66;;;17.45
70435;BMP280;57876;47.792;12.960;2022-11-25T01:44:30;96911.13;;;17.46
70435;BMP280;57876;47.792;12.960;2022-11-25T01:47:02;96902.19;;;17.45
70435;BMP280;57876;47.792;12.960;2022-11-25T01:49:35;96903.47;;;17.44
70435;BMP280;57876;47.792;12.960;2022-11-25T01:52:28;96906.94;;;17.45
70435;BMP280;57876;47.792;12.960;2022-11-25T01:55:00;96917.16;;;17.44
70435;BMP280;57876;47.792;12.960;2022-11-25T01:57:29;96916.47;;;17.44
70435;BMP280;57876;47.792;12.960;2022-11-25T01:59:56;96917.00;;;17.42
70435;BMP280;57876;47.792;12.960;2022-11-25T02:02:22;96923.22;;;17.43
70435;BMP280;57876;47.792;12.960;2022-11-25T02:04:47;96923.06;;;17.41
70435;BMP280;57876;47.792;12.960;2022-11-25T02:07:18;96919.03;;;17.42
70435;BMP280;57876;47.792;12.960;2022-11-25T02:09:46;96907.91;;;17.40
70435;BMP280;57876;47.792;12.960;2022-11-25T02:12:10;96899.72;;;17.40
70435;BMP280;57876;47.792;12.960;2022-11-25T02:14:35;96909.91;;;17.39
70435;BMP280;57876;47.792;12.960;2022-11-25T02:17:00;96892.09;;;17.38
70435;BMP280;57876;47.792;12.960;2022-11-25T02:19:36;96903.03;;;17.38
70435;BMP280;57876;47.792;12.960;2022-11-25T02:22:05;96893.38;;;17.37
70435;BMP280;57876;47.792;12.960;2022-11-25T02:24:47;96891.91;;;17.36
70435;BMP280;57876;47.792;12.960;2022-11-25T02:27:14;96878.25;;;17.36
70435;BMP280;57876;47.792;12.960;2022-11-25T02:29:39;96878.25;;;17.36
70435;BMP280;57876;47.792;12.960;2022-11-25T02:32:05;96878.09;;;17.34
70435;BMP280;57876;47.792;12.960;2022-11-25T02:34:29;96875.38;;;17.34
70435;BMP280;57876;47.792;12.960;2022-11-25T02:36:54;96871.19;;;17.33
70435;BMP280;57876;47.792;12.960;2022-11-25T02:39:19;96882.13;;;17.33
70435;BMP280;57876;47.792;12.960;2022-11-25T02:41:49;96886.84;;;17.33
70435;BMP280;57876;47.792;12.960;2022-11-25T02:44:14;96895.06;;;17.33
70435;BMP280;57876;47.792;12.960;2022-11-25T02:46:39;96884.69;;;17.31
70435;BMP280;57876;47.792;12.960;2022-11-25T02:49:03;96886.69;;;17.31
70435;BMP280;57876;47.792;12.960;2022-11-25T02:51:29;96885.94;;;17.30
70435;BMP280;57876;47.792;12.960;2022-11-25T02:53:55;96893.47;;;17.30
70435;BMP280;57876;47.792;12.960;2022-11-25T02:56:22;96900.53;;;17.33
70435;BMP280;57876;47.792;12.960;2022-11-25T02:58:47;96887.16;;;17.37
70435;BMP280;57876;47.792;12.960;2022-11-25T03:01:12;96880.00;;;17.41
70435;BMP280;57876;47.792;12.960;2022-11-25T03:03:37;96882.50;;;17.47
70435;BMP280;57876;47.792;12.960;2022-11-25T03:06:01;96882.09;;;17.50
70435;BMP280;57876;47.792;12.960;2022-11-25T03:08:26;96880.97;;;17.53
70435;BMP280;57876;47.792;12.960;2022-11-25T03:10:50;96889.34;;;17.55
70435;BMP280;57876;47.792;12.960;2022-11-25T03:13:14;96886.75;;;17.57
70435;BMP280;57876;47.792;12.960;2022-11-25T03:15:39;96882.16;;;17.60
70435;BMP280;57876;47.792;12.960;2022-11-25T03:18:04;96878.16;;;17.61
70435;BMP280;57876;47.792;12.960;2022-11-25T03:20:29;96876.16;;;17.61
70435;BMP280;57876;47.792;12.960;2022-11-25T03:22:53;96880.88;;;17.61
70435;BMP280;57876;47.792;12.960;2022-11-25T03:25:18;96880.34;;;17.62
70435;BMP280;57876;47.792;12.960;2022-11-25T03:27:43;96887.81;;;17.62
70435;BMP280;57876;47.792;12.960;2022-11-25T03:30:14;96879.59;;;17.62
70435;BMP280;57876;47.792;12.960;2022-11-25T03:32:39;96882.34;;;17.62
70435;BMP280;57876;47.792;12.960;2022-11-25T03:35:04;96882.34;;;17.62
70435;BMP280;57876;47.792;12.960;2022-11-25T03:37:28;96887.81;;;17.62
70435;BMP280;57876;47.792;12.960;2022-11-25T03:39:53;96892.56;;;17.61
70435;BMP280;57876;47.792;12.960;2022-11-25T03:42:17;96887.09;;;17.61
70435;BMP280;57876;47.792;12.960;2022-11-25T03:44:42;96886.34;;;17.61
70435;BMP280;57876;47.792;12.960;2022-11-25T03:47:06;96882.88;;;17.60
70435;BMP280;57876;47.792;12.960;2022-11-25T03:49:30;96889.63;;;17.59
70435;BMP280;57876;47.792;12.960;2022-11-25T03:51:55;96888.91;;;17.59
70435;BMP280;57876;47.792;12.960;2022-11-25T03:54:19;96882.75;;;17.58
70435;BMP280;57876;47.792;12.960;2022-11-25T03:56:43;96881.63;;;17.61
70435;BMP280;57876;47.792;12.960;2022-11-25T03:59:08;96883.94;;;17.65
70435;BMP280;57876;47.792;12.960;2022-11-25T04:01:33;96887.72;;;17.69
70435;BMP280;57876;47.792;12.960;2022-11-25T04:03:57;96876.34;;;17.73
70435;BMP280;57876;47.792;12.960;2022-11-25T04:06:22;96882.72;;;17.75
70435;BMP280;57876;47.792;12.960;2022-11-25T04:08:47;96880.13;;;17.77
70435;BMP280;57876;47.792;12.960;2022-11-25T04:11:11;96883.59;;;17.78
70435;BMP280;57876;47.792;12.960;2022-11-25T04:13:35;96879.56;;;17.79
70435;BMP280;57876;47.792;12.960;2022-11-25T04:16:00;96876.81;;;17.79
70435;BMP280;57876;47.792;12.960;2022-11-25T04:18:24;96874.81;;;17.79
70435;BMP280;57876;47.792;12.960;2022-11-25T04:20:49;96879.56;;;17.79
70435;BMP280;57876;47.792;12.960;2022-11-25T04:23:13;96879.56;;;17.79
70435;BMP280;57876;47.792;12.960;2022-11-25T04:25:38;96880.84;;;17.78
70435;BMP280;57876;47.792;12.960;2022-11-25T04:28:03;96876.09;;;17.78
70435;BMP280;57876;47.792;12.960;2022-11-25T04:30:28;96873.94;;;17.77
70435;BMP280;57876;47.792;12.960;2022-11-25T04:32:52;96869.19;;;17.77
70435;BMP280;57876;47.792;12.960;2022-11-25T04:35:17;96866.44;;;17.77
70435;BMP280;57876;47.792;12.960;2022-11-25T04:37:41;96874.50;;;17.75
70435;BMP280;57876;47.792;12.960;2022-11-25T04:40:06;96871.03;;;17.75
70435;BMP280;57876;47.792;12.960;2022-11-25T04:42:31;96872.34;;;17.74
70435;BMP280;57876;47.792;12.960;2022-11-25T04:44:55;96877.06;;;17.73
70435;BMP280;57876;47.792;12.960;2022-11-25T04:47:20;96874.19;;;17.71
70435;BMP280;57876;47.792;12.960;2022-11-25T04:49:44;96872.19;;;17.72
70435;BMP280;57876;47.792;12.960;2022-11-25T04:52:09;96875.47;;;17.70
70435;BMP280;57876;47.792;12.960;2022-11-25T04:54:33;96865.81;;;17.69
70435;BMP280;57876;47.792;12.960;2022-11-25T04:56:57;96872.75;;;17.70
70435;BMP280;57876;47.792;12.960;2022-11-25T04:59:22;96875.78;;;17.74
70435;BMP280;57876;47.792;12.960;2022-11-25T05:04:32;96885.34;;;17.83
70435;BMP280;57876;47.792;12.960;2022-11-25T05:06:57;96878.03;;;17.85
70435;BMP280;57876;47.792;12.960;2022-11-25T05:09:21;96886.97;;;17.86
70435;BMP280;57876;47.792;12.960;2022-11-25T05:11:45;96876.75;;;17.86
70435;BMP280;57876;47.792;12.960;2022-11-25T05:14:10;96880.19;;;17.87
70435;BMP280;57876;47.792;12.960;2022-11-25T05:16:35;96879.63;;;17.88
70435;BMP280;57876;47.792;12.960;2022-11-25T05:18:59;96876.75;;;17.86
70435;BMP280;57876;47.792;12.960;2022-11-25T05:21:24;96882.94;;;17.87
70435;BMP280;57876;47.792;12.960;2022-11-25T05:23:48;96882.22;;;17.86
70435;BMP280;57876;47.792;12.960;2022-11-25T05:26:12;96882.22;;;17.86
70435;BMP280;57876;47.792;12.960;2022-11-25T05:28:37;96891.72;;;17.85
70435;BMP280;57876;47.792;12.960;2022-11-25T05:31:01;96902.66;;;17.85
70435;BMP280;57876;47.792;12.960;2022-11-25T05:33:26;96888.06;;;17.83
70435;BMP280;57876;47.792;12.960;2022-11-25T05:36:01;96878.59;;;17.84
70435;BMP280;57876;47.792;12.960;2022-11-25T05:38:27;96893.31;;;17.88
70435;BMP280;57876;47.792;12.960;2022-11-25T05:40:52;96891.78;;;17.94
70435;BMP280;57876;47.792;12.960;2022-11-25T05:43:17;96896.72;;;18.05
70435;BMP280;57876;47.792;12.960;2022-11-25T05:45:41;96894.34;;;18.19
70435;BMP280;57876;47.792;12.960;2022-11-25T05:48:06;96891.34;;;18.24
70435;BMP280;57876;47.792;12.960;2022-11-25T05:50:30;96896.03;;;18.31
70435;BMP280;57876;47.792;12.960;2022-11-25T05:52:54;96897.03;;;18.36
70435;BMP280;57876;47.792;12.960;2022-11-25T05:55:19;96897.34;;;18.40
70435;BMP280;57876;47.792;12.960;2022-11-25T05:57:43;96905.13;;;18.43
70435;BMP280;57876;47.792;12.960;2022-11-25T06:00:08;96907.63;;;18.49
70435;BMP280;57876;47.792;12.960;2022-11-25T06:02:32;96902.63;;;18.55
70435;BMP280;57876;47.792;12.960;2022-11-25T06:04:57;96908.53;;;18.61
70435;BMP280;57876;47.792;12.960;2022-11-25T06:07:21;96906.81;;;18.65
70435;BMP280;57876;47.792;12.960;2022-11-25T06:09:45;96912.03;;;18.70
70435;BMP280;57876;47.792;12.960;2022-11-25T06:12:10;96914.19;;;18.72
70435;BMP280;57876;47.792;12.960;2022-11-25T06:14:34;96913.63;;;18.73
70435;BMP280;57876;47.792;12.960;2022-11-25T06:16:58;96913.06;;;18.75
70435;BMP280;57876;47.792;12.960;2022-11-25T06:19:23;96917.09;;;18.74
70435;BMP280;57876;47.792;12.960;2022-11-25T06:21:47;96921.84;;;18.73
70435;BMP280;57876;47.792;12.960;2022-11-25T06:24:12;96917.69;;;18.72
70435;BMP280;57876;47.792;12.960;2022-11-25T06:26:36;96911.28;;;18.70
70435;BMP280;57876;47.792;12.960;2022-11-25T06:29:00;96911.88;;;18.68
70435;BMP280;57876;47.792;12.960;2022-11-25T06:31:25;96915.19;;;18.67
70435;BMP280;57876;47.792;12.960;2022-11-25T06:33:50;96915.63;;;18.64
70435;BMP280;57876;47.792;12.960;2022-11-25T06:36:16;96920.94;;;18.62
70435;BMP280;57876;47.792;12.960;2022-11-25T06:38:46;96920.09;;;18.59
70435;BMP280;57876;47.792;12.960;2022-11-25T06:41:10;96922.63;;;18.57
70435;BMP280;57876;47.792;12.960;2022-11-25T06:43:35;96916.31;;;18.55
70435;BMP280;57876;47.792;12.960;2022-11-25T06:46:04;96921.44;;;18.51
70435;BMP280;57876;47.792;12.960;2022-11-25T06:48:29;96928.25;;;18.50
70435;BMP280;57876;47.792;12.960;2022-11-25T06:50:55;96933.56;;;18.48
70435;BMP280;57876;47.792;12.960;2022-11-25T06:53:20;96936.88;;;18.46
70435;BMP280;57876;47.792;12.960;2022-11-25T06:55:44;96933.81;;;18.42
70435;BMP280;57876;47.792;12.960;2022-11-25T06:58:09;96937.16;;;18.41
70435;BMP280;57876;47.792;12.960;2022-11-25T07:00:33;96930.78;;;18.38
70435;BMP280;57876;47.792;12.960;2022-11-25T07:02:58;96940.28;;;18.37
70435;BMP280;57876;47.792;12.960;2022-11-25T07:05:22;96936.66;;;18.35
70435;BMP280;57876;47.792;12.960;2022-11-25T07:07:46;96936.50;;;18.33
70435;BMP280;57876;47.792;12.960;2022-11-25T07:10:11;96943.31;;;18.32
70435;BMP280;57876;47.792;12.960;2022-11-25T07:12:35;96943.69;;;18.28
70435;BMP280;57876;47.792;12.960;2022-11-25T07:14:59;96943.00;;;18.28
70435;BMP280;57876;47.792;12.960;2022-11-25T07:17:24;96948.31;;;18.26
70435;BMP280;57876;47.792;12.960;2022-11-25T07:19:48;96953.63;;;18.24
70435;BMP280;57876;47.792;12.960;2022-11-25T07:22:12;96951.47;;;18.22
70435;BMP280;57876;47.792;12.960;2022-11-25T07:24:37;96956.78;;;18.20
70435;BMP280;57876;47.792;12.960;2022-11-25T07:27:01;96962.81;;;18.19
70435;BMP280;57876;47.792;12.960;2022-11-25T07:29:28;96962.13;;;18.18
70435;BMP280;57876;47.792;12.960;2022-11-25T07:31:53;96959.22;;;18.16
70435;BMP280;57876;47.792;12.960;2022-11-25T07:34:19;96965.22;;;18.15
70435;BMP280;57876;47.792;12.960;2022-11-25T07:36:45;96961.06;;;18.14
70435;BMP280;57876;47.792;12.960;2022-11-25T07:39:13;96962.34;;;18.13
70435;BMP280;57876;47.792;12.960;2022-11-25T07:41:38;96958.16;;;18.12
70435;BMP280;57876;47.792;12.960;2022-11-25T07:44:04;96960.91;;;18.12
70435;BMP280;57876;47.792;12.960;2022-11-25T07:46:37;96963.47;;;18.10
70435;BMP280;57876;47.792;12.960;2022-11-25T07:49:05;96965.50;;;18.09
70435;BMP280;57876;47.792;12.960;2022-11-25T07:51:34;96960.59;;;18.08
70435;BMP280;57876;47.792;12.960;2022-11-25T07:54:00;96965.34;;;18.07
70435;BMP280;57876;47.792;12.960;2022-11-25T07:56:25;96952.94;;;18.06
70435;BMP280;57876;47.792;12.960;2022-11-25T07:58:50;96954.94;;;18.06
70435;BMP280;57876;47.792;12.960;2022-11-25T08:01:15;96952.78;;;18.04
70435;BMP280;57876;47.792;12.960;2022-11-25T08:03:43;96954.78;;;18.04
70435;BMP280;57876;47.792;12.960;2022-11-25T08:06:10;96953.34;;;18.03
70435;BMP280;57876;47.792;12.960;2022-11-25T08:08:36;96956.09;;;18.03
70435;BMP280;57876;47.792;12.960;2022-11-25T08:11:05;96961.56;;;18.03
70435;BMP280;57876;47.792;12.960;2022-11-25T08:13:30;96952.63;;;18.02
70435;BMP280;57876;47.792;12.960;2022-11-25T08:15:58;96949.91;;;18.02
70435;BMP280;57876;47.792;12.960;2022-11-25T08:18:22;96953.34;;;18.03
70435;BMP280;57876;47.792;12.960;2022-11-25T08:20:46;96951.34;;;18.03
70435;BMP280;57876;47.792;12.960;2022-11-25T08:23:11;96966.50;;;18.04
70435;BMP280;57876;47.792;12.960;2022-11-25T08:25:40;96956.97;;;18.05
70435;BMP280;57876;47.792;12.960;2022-11-25T08:28:04;96963.16;;;18.06
70435;BMP280;57876;47.792;12.960;2022-11-25T08:30:29;96961.16;;;18.06
70435;BMP280;57876;47.792;12.960;2022-11-25T08:32:53;96946.19;;;18.07
70435;BMP280;57876;47.792;12.960;2022-11-25T08:35:18;96955.13;;;18.08
70435;BMP280;57876;47.792;12.960;2022-11-25T08:37:43;96958.00;;;18.10
70435;BMP280;57876;47.792;12.960;2022-11-25T08:40:08;96959.44;;;18.11
70435;BMP280;57876;47.792;12.960;2022-11-25T08:42:33;96960.75;;;18.10
70435;BMP280;57876;47.792;12.960;2022-11-25T08:44:58;96958.16;;;18.12
70435;BMP280;57876;47.792;12.960;2022-11-25T08:47:24;96964.34;;;18.12
70435;BMP280;57876;47.792;12.960;2022-11-25T08:49:52;96952.84;;;18.14
70435;BMP280;57876;47.792;12.960;2022-11-25T08:52:17;96959.75;;;18.15
70435;BMP280;57876;47.792;12.960;2022-11-25T08:54:41;96955.72;;;18.16
70435;BMP280;57876;47.792;12.960;2022-11-25T08:57:06;96951.00;;;18.16
70435;BMP280;57876;47.792;12.960;2022-11-25T08:59:30;96955.19;;;18.17
70435;BMP280;57876;47.792;12.960;2022-11-25T09:01:55;96945.69;;;18.18
70435;BMP280;57876;47.792;12.960;2022-11-25T09:04:19;96947.09;;;18.19
70435;BMP280;57876;47.792;12.960;2022-11-25T09:06:43;96967.72;;;18.20
70435;BMP280;57876;47.792;12.960;2022-11-25T09:09:08;96954.19;;;18.22
70435;BMP280;57876;47.792;12.960;2022-11-25T09:11:32;96953.50;;;18.22
70435;BMP280;57876;47.792;12.960;2022-11-25T09:13:57;96956.22;;;18.22
70435;BMP280;57876;47.792;12.960;2022-11-25T09:16:21;96952.22;;;18.23
70435;BMP280;57876;47.792;12.960;2022-11-25T09:18:46;96955.63;;;18.23
70435;BMP280;57876;47.792;12.960;2022-11-25T09:21:13;96945.97;;;18.22
70435;BMP280;57876;47.792;12.960;2022-11-25T09:23:38;96963.28;;;18.25
70435;BMP280;57876;47.792;12.960;2022-11-25T09:26:03;96962.56;;;18.24
70435;BMP280;57876;47.792;12.960;2022-11-25T09:28:28;96952.34;;;18.25
70435;BMP280;57876;47.792;12.960;2022-11-25T09:30:53;96961.28;;;18.25
70435;BMP280;57876;47.792;12.960;2022-11-25T09:33:20;96947.56;;;18.25
70435;BMP280;57876;47.792;12.960;2022-11-25T09:35:49;96964.16;;;18.27
70435;BMP280;57876;47.792;12.960;2022-11-25T09:38:13;96963.28;;;18.25
70435;BMP280;57876;47.792;12.960;2022-11-25T09:41:02;96957.25;;;18.26
70435;BMP280;57876;47.792;12.960;2022-11-25T09:43:37;96954.50;;;18.26
70435;BMP280;57876;47.792;12.960;2022-11-25T09:46:43;96958.69;;;18.27
70435;BMP280;57876;47.792;12.960;2022-11-25T09:54:56;96956.69;;;18.28
70435;BMP280;57876;47.792;12.960;2022-11-25T09:57:35;96951.22;;;18.28
70435;BMP280;57876;47.792;12.960;2022-11-25T10:00:22;96959.44;;;18.28
70435;BMP280;57876;47.792;12.960;2022-11-25T10:03:12;96951.91;;;18.28
70435;BMP280;57876;47.792;12.960;2022-11-25T10:05:58;96945.16;;;18.29
70435;BMP280;57876;47.792;12.960;2022-11-25T10:08:29;96952.09;;;18.30
70435;BMP280;57876;47.792;12.960;2022-11-25T10:11:06;96942.44;;;18.29
70435;BMP280;57876;47.792;12.960;2022-11-25T10:16:13;96939.69;;;18.29
70435;BMP280;57876;47.792;12.960;2022-11-25T10:18:46;96936.38;;;18.31
70435;BMP280;57876;47.792;12.960;2022-11-25T10:21:15;96947.31;;;18.31
70435;BMP280;57876;47.792;12.960;2022-11-25T10:23:40;96954.25;;;18.32
70435;BMP280;57876;47.792;12.960;2022-11-25T10:26:27;96942.59;;;18.31
70435;BMP280;57876;47.792;12.960;2022-11-25T10:29:05;96940.56;;;18.32
70435;BMP280;57876;47.792;12.960;2022-11-25T10:31:36;96941.31;;;18.32
70435;BMP280;57876;47.792;12.960;2022-11-25T10:34:01;96938.56;;;18.32
70435;BMP280;57876;47.792;12.960;2022-11-25T10:36:33;96935.81;;;18.32
70435;BMP280;57876;47.792;12.960;2022-11-25T10:39:12;96941.97;;;18.33
70435;BMP280;57876;47.792;12.960;2022-11-25T10:42:04;96945.47;;;18.33
70435;BMP280;57876;47.792;12.960;2022-11-25T10:44:35;96937.25;;;18.33
70435;BMP280;57876;47.792;12.960;2022-11-25T10:52:39;96945.47;;;18.33
70435;BMP280;57876;47.792;12.960;2022-11-25T10:55:15;96949.66;;;18.34
70435;BMP280;57876;47.792;12.960;2022-11-25T10:57:41;96959.16;;;18.33
70435;BMP280;57876;47.792;12.960;2022-11-25T11:00:24;96945.47;;;18.33
70435;BMP280;57876;47.792;12.960;2022-11-25T11:02:49;96949.66;;;18.34
70435;BMP280;57876;47.792;12.960;2022-11-25T11:05:19;96948.38;;;18.35
70435;BMP280;57876;47.792;12.960;2022-11-25T11:07:45;96946.19;;;18.34
70435;BMP280;57876;47.792;12.960;2022-11-25T11:13:05;96944.59;;;18.31
70435;BMP280;57876;47.792;12.960;2022-11-25T11:15:32;96940.41;;;18.30
70435;BMP280;57876;47.792;12.960;2022-11-25T11:20:46;96947.16;;;18.29
70435;BMP280;57876;47.792;12.960;2022-11-25T11:23:12;96942.25;;;18.27
70435;BMP280;57876;47.792;12.960;2022-11-25T11:25:39;96941.56;;;18.27
70435;BMP280;57876;47.792;12.960;2022-11-25T11:31:03;96944.84;;;18.25
70435;BMP280;57876;47.792;12.960;2022-11-25T11:36:04;96949.03;;;18.26
70435;BMP280;57876;47.792;12.960;2022-11-25T11:46:29;96961.28;;;18.25
70435;BMP280;57876;47.792;12.960;2022-11-25T12:00:15;96967.47;;;18.26
70435;BMP280;57876;47.792;12.960;2022-11-25T12:15:51;96972.22;;;18.25
70435;BMP280;57876;47.792;12.960;2022-11-25T12:18:19;96974.97;;;18.25
70435;BMP280;57876;47.792;12.960;2022-11-25T12:20:58;96972.97;;;18.26
70435;BMP280;57876;47.792;12.960;2022-11-25T12:23:38;96973.66;;;18.26
70435;BMP280;57876;47.792;12.960;2022-11-25T12:26:11;96971.50;;;18.25
70435;BMP280;57876;47.792;12.960;2022-11-25T12:28:44;96978.44;;;18.26
70435;BMP280;57876;47.792;12.960;2022-11-25T12:31:25;96975.69;;;18.26
70435;BMP280;57876;47.792;12.960;2022-11-25T12:36:38;96994.13;;;18.25
70435;BMP280;57876;47.792;12.960;2022-11-25T12:39:27;96979.72;;;18.25
70435;BMP280;57876;47.792;12.960;2022-11-25T12:42:07;96981.19;;;18.26
70435;BMP280;57876;47.792;12.960;2022-11-25T12:47:22;96986.66;;;18.26
70435;BMP280;57876;47.792;12.960;2022-11-25T12:49:49;96988.66;;;18.25
70435;BMP280;57876;47.792;12.960;2022-11-25T12:55:19;96998.31;;;18.26
70435;BMP280;57876;47.792;12.960;2022-11-25T13:00:22;96985.91;;;18.25
70435;BMP280;57876;47.792;12.960;2022-11-25T13:06:11;96985.19;;;18.25
70435;BMP280;57876;47.792;12.960;2022-11-25T13:17:27;96979.00;;;18.24
70435;BMP280;57876;47.792;12.960;2022-11-25T13:25:28;96975.53;;;18.24
70435;BMP280;57876;47.792;12.960;2022-11-25T13:35:55;96977.53;;;18.23
70435;BMP280;57876;47.792;12.960;2022-11-25T13:41:02;96979.59;;;18.23
70435;BMP280;57876;47.792;12.960;2022-11-25T13:43:27;96983.00;;;18.23
70435;BMP280;57876;47.792;12.960;2022-11-25T13:45:51;96983.00;;;18.23
70435;BMP280;57876;47.792;12.960;2022-11-25T13:48:22;96987.81;;;18.23
70435;BMP280;57876;47.792;12.960;2022-11-25T13:50:49;96982.31;;;18.23
70435;BMP280;57876;47.792;12.960;2022-11-25T13:55:45;96979.59;;;18.23
70435;BMP280;57876;47.792;12.960;2022-11-25T14:00:47;96985.75;;;18.23
70435;BMP280;57876;47.792;12.960;2022-11-25T14:08:25;96978.28;;;18.24
70435;BMP280;57876;47.792;12.960;2022-11-25T14:22:17;96980.88;;;18.22
70435;BMP280;57876;47.792;12.960;2022-11-25T14:24:47;96984.88;;;18.21
70435;BMP280;57876;47.792;12.960;2022-11-25T14:27:16;96993.09;;;18.21
70435;BMP280;57876;47.792;12.960;2022-11-25T14:29:47;96994.38;;;18.20
70435;BMP280;57876;47.792;12.960;2022-11-25T14:32:20;96991.63;;;18.20
70435;BMP280;57876;47.792;12.960;2022-11-25T14:34:55;96990.19;;;18.19
70435;BMP280;57876;47.792;12.960;2022-11-25T14:37:33;96995.66;;;18.19
70435;BMP280;57876;47.792;12.960;2022-11-25T14:40:03;96990.78;;;18.17
70435;BMP280;57876;47.792;12.960;2022-11-25T14:42:36;96994.97;;;18.18
70435;BMP280;57876;47.792;12.960;2022-11-25T14:45:00;96997.72;;;18.18
70435;BMP280;57876;47.792;12.960;2022-11-25T14:47:29;97003.19;;;18.18
70435;BMP280;57876;47.792;12.960;2022-11-25T14:49:55;96997.13;;;18.20
70435;BMP280;57876;47.792;12.960;2022-11-25T14:52:26;96996.41;;;18.19
70435;BMP280;57876;47.792;12.960;2022-11-25T14:54:54;97001.88;;;18.19
70435;BMP280;57876;47.792;12.960;2022-11-25T14:57:32;97010.81;;;18.20
70435;BMP280;57876;47.792;12.960;2022-11-25T15:00:02;97008.06;;;18.20
70435;BMP280;57876;47.792;12.960;2022-11-25T15:02:30;97010.81;;;18.20
70435;BMP280;57876;47.792;12.960;2022-11-25T15:05:14;97012.84;;;18.19
70435;BMP280;57876;47.792;12.960;2022-11-25T15:07:52;97019.03;;;18.20
70435;BMP280;57876;47.792;12.960;2022-11-25T15:12:57;97032.00;;;18.19
70435;BMP280;57876;47.792;12.960;2022-11-25T15:15:25;97032.72;;;18.20
70435;BMP280;57876;47.792;12.960;2022-11-25T15:17:49;97023.78;;;18.19
70435;BMP280;57876;47.792;12.960;2022-11-25T15:20:17;97035.44;;;18.20
70435;BMP280;57876;47.792;12.960;2022-11-25T15:22:46;97032.72;;;18.20
70435;BMP280;57876;47.792;12.960;2022-11-25T15:25:14;97039.66;;;18.21
70435;BMP280;57876;47.792;12.960;2022-11-25T15:27:50;97035.44;;;18.20
70435;BMP280;57876;47.792;12.960;2022-11-25T15:32:43;97042.38;;;18.21
70435;BMP280;57876;47.792;12.960;2022-11-25T15:35:15;97049.88;;;18.20
70435;BMP280;57876;47.792;12.960;2022-11-25T15:37:40;97045.13;;;18.21
70435;BMP280;57876;47.792;12.960;2022-11-25T15:40:34;97049.16;;;18.20
70435;BMP280;57876;47.792;12.960;2022-11-25T15:43:06;97057.56;;;18.22
70435;BMP280;57876;47.792;12.960;2022-11-25T15:45:44;97063.75;;;18.22
70435;BMP280;57876;47.792;12.960;2022-11-25T15:48:38;97060.84;;;18.20
70435;BMP280;57876;47.792;12.960;2022-11-25T15:51:04;97071.25;;;18.22
70435;BMP280;57876;47.792;12.960;2022-11-25T15:53:30;97074.00;;;18.22
70435;BMP280;57876;47.792;12.960;2022-11-25T15:56:00;97079.47;;;18.22
70435;BMP280;57876;47.792;12.960;2022-11-25T15:58:25;97078.72;;;18.21
70435;BMP280;57876;47.792;12.960;2022-11-25T16:03:39;97077.44;;;18.22
70435;BMP280;57876;47.792;12.960;2022-11-25T16:06:21;97074.00;;;18.22
70435;BMP280;57876;47.792;12.960;2022-11-25T16:11:16;97085.66;;;18.22